sensor_id;sensor_type;location;lat;lon;timestamp;temperature;humidity
14585;DHT22;7379;51.506;11.876;2023-02-12T00:01:22;6.30;85.00
14585;DHT22;7379;51.506;11.876;2023-02-12T00:03:50;6.30;84.80
14585;DHT22;7379;51.506;11.876;2023-02-12T00:06:18;6.30;84.60
14585;DHT22;7379;51.506;11.876;2023-02-12T00:08:48;6.30;84.40
14585;DHT22;7379;51.506;11.876;2023-02-12T00:11:17;6.30;84.20
14585;DHT22;7379;51.506;11.876;2023-02-12T00:13:44;6.30;84.10
14585;DHT22;7379;51.506;11.876;2023-02-12T00:16:14;6.30;84.10
14585;DHT22;7379;51.506;11.876;2023-02-12T00:18:41;6.30;84.00
14585;DHT22;7379;51.506;11.876;2023-02-12T00:21:08;6.30;83.80
14585;DHT22;7379;51.506;11.876;2023-02-12T00:23:37;6.30;83.80
14585;DHT22;7379;51.506;11.876;2023-02-12T00:26:06;6.40;83.80
14585;DHT22;7379;51.506;11.876;2023-02-12T00:28:33;6.30;83.80
14585;DHT22;7379;51.506;11.876;2023-02-12T00:31:04;6.30;83.70
14585;DHT22;7379;51.506;11.876;2023-02-12T00:33:31;6.40;83.80
14585;DHT22;7379;51.506;11.876;2023-02-12T00:35:58;6.30;83.60
14585;DHT22;7379;51.506;11.876;2023-02-12T00:38:26;6.40;84.40
14585;DHT22;7379;51.506;11.876;2023-02-12T00:40:54;6.30;83.60
14585;DHT22;7379;51.506;11.876;2023-02-12T00:43:21;6.30;83.60
14585;DHT22;7379;51.506;11.876;2023-02-12T00:45:48;6.30;83.60
14585;DHT22;7379;51.506;11.876;2023-02-12T00:48:16;6.40;83.80
14585;DHT22;7379;51.506;11.876;2023-02-12T00:50:44;6.40;83.80
14585;DHT22;7379;51.506;11.876;2023-02-12T00:53:11;6.40;83.80
14585;DHT22;7379;51.506;11.876;2023-02-12T00:55:38;6.40;83.90
14585;DHT22;7379;51.506;11.876;2023-02-12T00:58:06;6.40;83.90
14585;DHT22;7379;51.506;11.876;2023-02-12T01:00:33;6.40;84.10
14585;DHT22;7379;51.506;11.876;2023-02-12T01:03:00;6.40;84.30
14585;DHT22;7379;51.506;11.876;2023-02-12T01:05:28;6.40;84.50
14585;DHT22;7379;51.506;11.876;2023-02-12T01:07:56;6.40;84.60
14585;DHT22;7379;51.506;11.876;2023-02-12T01:10:23;6.40;84.60
14585;DHT22;7379;51.506;11.876;2023-02-12T01:12:50;6.40;84.70
14585;DHT22;7379;51.506;11.876;2023-02-12T01:15:19;6.40;84.70
14585;DHT22;7379;51.506;11.876;2023-02-12T01:17:46;6.40;84.50
14585;DHT22;7379;51.506;11.876;2023-02-12T01:20:15;6.40;84.60
14585;DHT22;7379;51.506;11.876;2023-02-12T01:22:44;6.40;84.70
14585;DHT22;7379;51.506;11.876;2023-02-12T01:25:12;6.40;84.80
14585;DHT22;7379;51.506;11.876;2023-02-12T01:27:39;6.40;84.70
14585;DHT22;7379;51.506;11.876;2023-02-12T01:30:08;6.40;84.60
14585;DHT22;7379;51.506;11.876;2023-02-12T01:32:36;6.40;84.60
14585;DHT22;7379;51.506;11.876;2023-02-12T01:35:12;6.40;84.50
14585;DHT22;7379;51.506;11.876;2023-02-12T01:37:39;6.40;84.50
14585;DHT22;7379;51.506;11.876;2023-02-12T01:40:07;6.40;84.50
14585;DHT22;7379;51.506;11.876;2023-02-12T01:42:34;6.40;84.60
14585;DHT22;7379;51.506;11.876;2023-02-12T01:48:21;6.40;84.60
14585;DHT22;7379;51.506;11.876;2023-02-12T01:50:50;6.40;84.60
14585;DHT22;7379;51.506;11.876;2023-02-12T01:53:19;6.40;84.50
14585;DHT22;7379;51.506;11.876;2023-02-12T01:55:48;6.40;84.40
14585;DHT22;7379;51.506;11.876;2023-02-12T01:58:16;6.40;84.40
14585;DHT22;7379;51.506;11.876;2023-02-12T02:00:44;6.40;84.50
14585;DHT22;7379;51.506;11.876;2023-02-12T02:03:11;6.40;84.70
14585;DHT22;7379;51.506;11.876;2023-02-12T02:05:43;6.40;84.90
14585;DHT22;7379;51.506;11.876;2023-02-12T02:08:11;6.40;85.00
14585;DHT22;7379;51.506;11.876;2023-02-12T02:10:38;6.40;85.10
14585;DHT22;7379;51.506;11.876;2023-02-12T02:13:05;6.40;85.30
14585;DHT22;7379;51.506;11.876;2023-02-12T02:15:53;6.50;86.30
14585;DHT22;7379;51.506;11.876;2023-02-12T02:18:23;6.40;85.70
14585;DHT22;7379;51.506;11.876;2023-02-12T02:21:25;6.50;85.90
14585;DHT22;7379;51.506;11.876;2023-02-12T02:27:10;6.50;86.10
14585;DHT22;7379;51.506;11.876;2023-02-12T02:30:13;6.50;86.10
14585;DHT22;7379;51.506;11.876;2023-02-12T02:32:46;6.50;86.10
14585;DHT22;7379;51.506;11.876;2023-02-12T02:35:20;6.50;86.20
14585;DHT22;7379;51.506;11.876;2023-02-12T02:37:55;6.50;86.20
14585;DHT22;7379;51.506;11.876;2023-02-12T02:40:24;6.50;86.40
14585;DHT22;7379;51.506;11.876;2023-02-12T02:42:56;6.50;86.50
14585;DHT22;7379;51.506;11.876;2023-02-12T02:45:28;6.50;86.60
14585;DHT22;7379;51.506;11.876;2023-02-12T02:48:02;6.50;86.70
14585;DHT22;7379;51.506;11.876;2023-02-12T02:50:33;6.50;86.70
14585;DHT22;7379;51.506;11.876;2023-02-12T02:53:03;6.50;86.90
14585;DHT22;7379;51.506;11.876;2023-02-12T02:55:34;6.50;86.90
14585;DHT22;7379;51.506;11.876;2023-02-12T02:58:08;6.50;86.90
14585;DHT22;7379;51.506;11.876;2023-02-12T03:00:41;6.50;86.90
14585;DHT22;7379;51.506;11.876;2023-02-12T03:03:14;6.50;87.00
14585;DHT22;7379;51.506;11.876;2023-02-12T03:05:46;6.50;87.10
14585;DHT22;7379;51.506;11.876;2023-02-12T03:08:18;6.50;87.20
14585;DHT22;7379;51.506;11.876;2023-02-12T03:10:51;6.50;87.20
14585;DHT22;7379;51.506;11.876;2023-02-12T03:13:22;6.50;87.20
14585;DHT22;7379;51.506;11.876;2023-02-12T03:15:56;6.50;87.30
14585;DHT22;7379;51.506;11.876;2023-02-12T03:18:27;6.50;87.40
14585;DHT22;7379;51.506;11.876;2023-02-12T03:20:59;6.50;87.50
14585;DHT22;7379;51.506;11.876;2023-02-12T03:23:30;6.50;87.50
14585;DHT22;7379;51.506;11.876;2023-02-12T03:26:03;6.50;87.40
14585;DHT22;7379;51.506;11.876;2023-02-12T03:28:34;6.50;87.40
14585;DHT22;7379;51.506;11.876;2023-02-12T03:31:07;6.60;87.40
14585;DHT22;7379;51.506;11.876;2023-02-12T03:33:43;6.50;87.30
14585;DHT22;7379;51.506;11.876;2023-02-12T03:36:21;6.50;87.20
14585;DHT22;7379;51.506;11.876;2023-02-12T03:38:53;6.50;87.10
14585;DHT22;7379;51.506;11.876;2023-02-12T03:41:26;6.50;87.70
14585;DHT22;7379;51.506;11.876;2023-02-12T03:44:00;6.50;86.90
14585;DHT22;7379;51.506;11.876;2023-02-12T03:46:39;6.60;87.10
14585;DHT22;7379;51.506;11.876;2023-02-12T03:49:11;6.50;86.90
14585;DHT22;7379;51.506;11.876;2023-02-12T03:51:44;6.50;87.00
14585;DHT22;7379;51.506;11.876;2023-02-12T03:54:13;6.50;87.10
14585;DHT22;7379;51.506;11.876;2023-02-12T03:56:43;6.60;87.10
14585;DHT22;7379;51.506;11.876;2023-02-12T03:59:13;6.60;87.10
14585;DHT22;7379;51.506;11.876;2023-02-12T04:01:41;6.50;87.00
14585;DHT22;7379;51.506;11.876;2023-02-12T04:04:08;6.50;87.00
14585;DHT22;7379;51.506;11.876;2023-02-12T04:06:35;6.60;87.00
14585;DHT22;7379;51.506;11.876;2023-02-12T04:09:04;6.50;86.90
14585;DHT22;7379;51.506;11.876;2023-02-12T04:11:37;6.60;87.00
14585;DHT22;7379;51.506;11.876;2023-02-12T04:14:14;6.60;87.00
14585;DHT22;7379;51.506;11.876;2023-02-12T04:16:49;6.60;87.00
14585;DHT22;7379;51.506;11.876;2023-02-12T04:19:24;6.60;86.90
14585;DHT22;7379;51.506;11.876;2023-02-12T04:22:06;6.60;86.90
14585;DHT22;7379;51.506;11.876;2023-02-12T04:24:43;6.60;86.80
14585;DHT22;7379;51.506;11.876;2023-02-12T04:27:17;6.60;86.60
14585;DHT22;7379;51.506;11.876;2023-02-12T04:29:49;6.60;86.50
14585;DHT22;7379;51.506;11.876;2023-02-12T04:32:24;6.60;86.40
14585;DHT22;7379;51.506;11.876;2023-02-12T04:34:57;6.60;86.30
14585;DHT22;7379;51.506;11.876;2023-02-12T04:37:31;6.60;86.40
14585;DHT22;7379;51.506;11.876;2023-02-12T04:40:02;6.60;86.30
14585;DHT22;7379;51.506;11.876;2023-02-12T04:42:29;6.60;86.40
14585;DHT22;7379;51.506;11.876;2023-02-12T04:44:56;6.60;86.40
14585;DHT22;7379;51.506;11.876;2023-02-12T04:47:25;6.60;86.40
14585;DHT22;7379;51.506;11.876;2023-02-12T04:49:51;6.60;86.40
14585;DHT22;7379;51.506;11.876;2023-02-12T04:52:18;6.60;86.50
14585;DHT22;7379;51.506;11.876;2023-02-12T04:54:45;6.60;86.50
14585;DHT22;7379;51.506;11.876;2023-02-12T04:57:12;6.60;86.50
14585;DHT22;7379;51.506;11.876;2023-02-12T04:59:38;6.60;86.50
14585;DHT22;7379;51.506;11.876;2023-02-12T05:02:05;6.60;86.60
14585;DHT22;7379;51.506;11.876;2023-02-12T05:04:33;6.60;86.50
14585;DHT22;7379;51.506;11.876;2023-02-12T05:07:00;6.60;86.30
14585;DHT22;7379;51.506;11.876;2023-02-12T05:09:27;6.60;86.20
14585;DHT22;7379;51.506;11.876;2023-02-12T05:11:54;6.60;86.10
14585;DHT22;7379;51.506;11.876;2023-02-12T05:14:23;6.60;86.00
14585;DHT22;7379;51.506;11.876;2023-02-12T05:16:50;6.60;85.80
14585;DHT22;7379;51.506;11.876;2023-02-12T05:19:17;6.60;85.80
14585;DHT22;7379;51.506;11.876;2023-02-12T05:21:45;6.60;85.80
14585;DHT22;7379;51.506;11.876;2023-02-12T05:24:12;6.60;85.80
14585;DHT22;7379;51.506;11.876;2023-02-12T05:26:38;6.60;85.90
14585;DHT22;7379;51.506;11.876;2023-02-12T05:29:05;6.60;86.10
14585;DHT22;7379;51.506;11.876;2023-02-12T05:31:32;6.60;86.00
14585;DHT22;7379;51.506;11.876;2023-02-12T05:33:59;6.60;86.10
14585;DHT22;7379;51.506;11.876;2023-02-12T05:36:26;6.60;86.20
14585;DHT22;7379;51.506;11.876;2023-02-12T05:38:56;6.60;86.20
14585;DHT22;7379;51.506;11.876;2023-02-12T05:41:24;6.60;86.10
14585;DHT22;7379;51.506;11.876;2023-02-12T05:43:51;6.60;86.20
14585;DHT22;7379;51.506;11.876;2023-02-12T05:46:19;6.60;86.30
14585;DHT22;7379;51.506;11.876;2023-02-12T05:48:46;6.60;86.30
14585;DHT22;7379;51.506;11.876;2023-02-12T05:51:15;6.60;86.30
14585;DHT22;7379;51.506;11.876;2023-02-12T05:53:42;6.60;86.50
14585;DHT22;7379;51.506;11.876;2023-02-12T05:56:12;6.60;86.40
14585;DHT22;7379;51.506;11.876;2023-02-12T05:58:40;6.60;86.50
14585;DHT22;7379;51.506;11.876;2023-02-12T06:01:10;6.60;86.60
14585;DHT22;7379;51.506;11.876;2023-02-12T06:03:37;6.60;86.50
14585;DHT22;7379;51.506;11.876;2023-02-12T06:06:04;6.60;86.60
14585;DHT22;7379;51.506;11.876;2023-02-12T06:08:31;6.60;86.50
14585;DHT22;7379;51.506;11.876;2023-02-12T06:10:59;6.60;86.60
14585;DHT22;7379;51.506;11.876;2023-02-12T06:13:29;6.60;86.60
14585;DHT22;7379;51.506;11.876;2023-02-12T06:15:56;6.60;86.80
14585;DHT22;7379;51.506;11.876;2023-02-12T06:18:23;6.60;86.90
14585;DHT22;7379;51.506;11.876;2023-02-12T06:20:50;6.60;86.90
14585;DHT22;7379;51.506;11.876;2023-02-12T06:23:18;6.60;86.90
14585;DHT22;7379;51.506;11.876;2023-02-12T06:25:45;6.60;87.00
14585;DHT22;7379;51.506;11.876;2023-02-12T06:28:12;6.60;86.90
14585;DHT22;7379;51.506;11.876;2023-02-12T06:30:40;6.60;86.90
14585;DHT22;7379;51.506;11.876;2023-02-12T06:33:07;6.60;86.90
14585;DHT22;7379;51.506;11.876;2023-02-12T06:35:34;6.60;86.90
14585;DHT22;7379;51.506;11.876;2023-02-12T06:38:01;6.60;86.90
14585;DHT22;7379;51.506;11.876;2023-02-12T06:40:28;6.60;87.00
14585;DHT22;7379;51.506;11.876;2023-02-12T06:42:55;6.60;87.10
14585;DHT22;7379;51.506;11.876;2023-02-12T06:45:22;6.60;87.10
14585;DHT22;7379;51.506;11.876;2023-02-12T06:47:50;6.60;87.20
14585;DHT22;7379;51.506;11.876;2023-02-12T06:50:18;6.60;87.30
14585;DHT22;7379;51.506;11.876;2023-02-12T06:52:45;6.60;87.20
14585;DHT22;7379;51.506;11.876;2023-02-12T06:55:11;6.70;87.30
14585;DHT22;7379;51.506;11.876;2023-02-12T06:57:38;6.60;87.10
14585;DHT22;7379;51.506;11.876;2023-02-12T07:00:06;6.60;87.90
14585;DHT22;7379;51.506;11.876;2023-02-12T07:02:33;6.60;87.20
14585;DHT22;7379;51.506;11.876;2023-02-12T07:05:01;6.60;87.20
14585;DHT22;7379;51.506;11.876;2023-02-12T07:07:28;6.60;87.20
14585;DHT22;7379;51.506;11.876;2023-02-12T07:09:55;6.60;87.10
14585;DHT22;7379;51.506;11.876;2023-02-12T07:12:22;6.60;87.20
14585;DHT22;7379;51.506;11.876;2023-02-12T07:14:49;6.60;87.20
14585;DHT22;7379;51.506;11.876;2023-02-12T07:17:15;6.60;87.30
14585;DHT22;7379;51.506;11.876;2023-02-12T07:19:42;6.60;87.30
14585;DHT22;7379;51.506;11.876;2023-02-12T07:22:10;6.60;87.30
14585;DHT22;7379;51.506;11.876;2023-02-12T07:24:37;6.60;87.30
14585;DHT22;7379;51.506;11.876;2023-02-12T07:27:04;6.60;87.30
14585;DHT22;7379;51.506;11.876;2023-02-12T07:29:31;6.70;87.50
14585;DHT22;7379;51.506;11.876;2023-02-12T07:31:58;6.70;87.50
14585;DHT22;7379;51.506;11.876;2023-02-12T07:34:25;6.70;87.60
14585;DHT22;7379;51.506;11.876;2023-02-12T07:36:52;6.70;87.50
14585;DHT22;7379;51.506;11.876;2023-02-12T07:39:20;6.70;87.40
14585;DHT22;7379;51.506;11.876;2023-02-12T07:41:47;6.70;87.50
14585;DHT22;7379;51.506;11.876;2023-02-12T07:44:14;6.70;87.50
14585;DHT22;7379;51.506;11.876;2023-02-12T07:46:42;6.70;87.50
14585;DHT22;7379;51.506;11.876;2023-02-12T07:49:11;6.70;87.60
14585;DHT22;7379;51.506;11.876;2023-02-12T07:51:40;6.70;87.50
14585;DHT22;7379;51.506;11.876;2023-02-12T07:54:07;6.70;87.50
14585;DHT22;7379;51.506;11.876;2023-02-12T07:56:37;6.70;88.20
14585;DHT22;7379;51.506;11.876;2023-02-12T07:59:05;6.70;87.50
14585;DHT22;7379;51.506;11.876;2023-02-12T08:01:34;6.70;87.60
14585;DHT22;7379;51.506;11.876;2023-02-12T08:04:02;6.70;87.50
14585;DHT22;7379;51.506;11.876;2023-02-12T08:06:31;6.70;87.60
14585;DHT22;7379;51.506;11.876;2023-02-12T08:09:00;6.70;87.50
14585;DHT22;7379;51.506;11.876;2023-02-12T08:11:28;6.70;87.60
14585;DHT22;7379;51.506;11.876;2023-02-12T08:13:58;6.70;87.60
14585;DHT22;7379;51.506;11.876;2023-02-12T08:16:26;6.70;87.60
14585;DHT22;7379;51.506;11.876;2023-02-12T08:18:54;6.70;87.60
14585;DHT22;7379;51.506;11.876;2023-02-12T08:21:23;6.70;88.30
14585;DHT22;7379;51.506;11.876;2023-02-12T08:23:50;6.80;87.70
14585;DHT22;7379;51.506;11.876;2023-02-12T08:26:20;6.80;87.60
14585;DHT22;7379;51.506;11.876;2023-02-12T08:28:48;6.80;87.60
14585;DHT22;7379;51.506;11.876;2023-02-12T08:31:18;6.80;87.80
14585;DHT22;7379;51.506;11.876;2023-02-12T08:33:47;6.80;88.40
14585;DHT22;7379;51.506;11.876;2023-02-12T08:36:16;6.80;88.90
14585;DHT22;7379;51.506;11.876;2023-02-12T08:38:44;6.80;88.80
14585;DHT22;7379;51.506;11.876;2023-02-12T08:41:13;6.80;89.00
14585;DHT22;7379;51.506;11.876;2023-02-12T08:43:41;6.80;89.30
14585;DHT22;7379;51.506;11.876;2023-02-12T08:46:09;6.80;89.40
14585;DHT22;7379;51.506;11.876;2023-02-12T08:48:38;6.80;89.00
14585;DHT22;7379;51.506;11.876;2023-02-12T08:51:07;6.80;89.20
14585;DHT22;7379;51.506;11.876;2023-02-12T08:53:34;6.80;89.60
14585;DHT22;7379;51.506;11.876;2023-02-12T08:56:01;6.80;90.10
14585;DHT22;7379;51.506;11.876;2023-02-12T08:58:28;6.90;90.20
14585;DHT22;7379;51.506;11.876;2023-02-12T09:00:55;6.90;90.40
14585;DHT22;7379;51.506;11.876;2023-02-12T09:03:22;6.90;90.50
14585;DHT22;7379;51.506;11.876;2023-02-12T09:05:50;6.90;90.50
14585;DHT22;7379;51.506;11.876;2023-02-12T09:08:17;6.90;90.60
14585;DHT22;7379;51.506;11.876;2023-02-12T09:10:45;6.90;90.70
14585;DHT22;7379;51.506;11.876;2023-02-12T09:13:12;6.90;90.80
14585;DHT22;7379;51.506;11.876;2023-02-12T09:15:41;6.90;90.80
14585;DHT22;7379;51.506;11.876;2023-02-12T09:18:08;6.90;91.00
14585;DHT22;7379;51.506;11.876;2023-02-12T09:20:36;6.90;90.90
14585;DHT22;7379;51.506;11.876;2023-02-12T09:23:05;6.90;90.70
14585;DHT22;7379;51.506;11.876;2023-02-12T09:25:32;6.90;90.50
14585;DHT22;7379;51.506;11.876;2023-02-12T09:27:59;7.00;90.70
14585;DHT22;7379;51.506;11.876;2023-02-12T09:30:26;7.00;91.10
14585;DHT22;7379;51.506;11.876;2023-02-12T09:32:53;7.00;90.80
14585;DHT22;7379;51.506;11.876;2023-02-12T09:35:20;7.00;90.90
14585;DHT22;7379;51.506;11.876;2023-02-12T09:37:47;7.00;90.90
14585;DHT22;7379;51.506;11.876;2023-02-12T09:40:20;7.00;90.90
14585;DHT22;7379;51.506;11.876;2023-02-12T09:42:59;7.00;90.80
14585;DHT22;7379;51.506;11.876;2023-02-12T09:45:32;7.00;90.90
14585;DHT22;7379;51.506;11.876;2023-02-12T09:48:10;7.00;90.80
14585;DHT22;7379;51.506;11.876;2023-02-12T09:50:44;7.00;90.70
14585;DHT22;7379;51.506;11.876;2023-02-12T09:53:12;7.00;90.70
14585;DHT22;7379;51.506;11.876;2023-02-12T09:55:41;7.00;90.70
14585;DHT22;7379;51.506;11.876;2023-02-12T09:58:13;7.00;90.80
14585;DHT22;7379;51.506;11.876;2023-02-12T10:00:40;7.00;90.70
14585;DHT22;7379;51.506;11.876;2023-02-12T10:03:12;7.00;90.70
14585;DHT22;7379;51.506;11.876;2023-02-12T10:05:45;7.00;90.70
14585;DHT22;7379;51.506;11.876;2023-02-12T10:11:27;7.00;91.00
14585;DHT22;7379;51.506;11.876;2023-02-12T10:14:03;7.00;90.80
14585;DHT22;7379;51.506;11.876;2023-02-12T10:16:39;7.00;91.00
14585;DHT22;7379;51.506;11.876;2023-02-12T10:19:18;7.00;90.40
14585;DHT22;7379;51.506;11.876;2023-02-12T10:21:55;7.00;90.30
14585;DHT22;7379;51.506;11.876;2023-02-12T10:24:39;7.00;90.20
14585;DHT22;7379;51.506;11.876;2023-02-12T10:27:15;7.10;90.40
14585;DHT22;7379;51.506;11.876;2023-02-12T10:29:44;7.00;90.30
14585;DHT22;7379;51.506;11.876;2023-02-12T10:32:19;7.10;90.30
14585;DHT22;7379;51.506;11.876;2023-02-12T10:34:49;7.00;90.10
14585;DHT22;7379;51.506;11.876;2023-02-12T10:37:33;7.10;90.20
14585;DHT22;7379;51.506;11.876;2023-02-12T10:40:05;7.10;90.40
14585;DHT22;7379;51.506;11.876;2023-02-12T10:42:43;7.10;90.60
14585;DHT22;7379;51.506;11.876;2023-02-12T10:45:13;7.10;90.60
14585;DHT22;7379;51.506;11.876;2023-02-12T10:47:40;7.10;90.70
14585;DHT22;7379;51.506;11.876;2023-02-12T10:50:17;7.10;90.80
14585;DHT22;7379;51.506;11.876;2023-02-12T10:52:47;7.10;90.80
14585;DHT22;7379;51.506;11.876;2023-02-12T10:55:25;7.10;90.60
14585;DHT22;7379;51.506;11.876;2023-02-12T10:57:54;7.10;90.60
14585;DHT22;7379;51.506;11.876;2023-02-12T11:00:28;7.10;90.90
14585;DHT22;7379;51.506;11.876;2023-02-12T11:03:01;7.10;90.70
14585;DHT22;7379;51.506;11.876;2023-02-12T11:05:31;7.10;90.80
14585;DHT22;7379;51.506;11.876;2023-02-12T11:07:58;7.10;90.80
14585;DHT22;7379;51.506;11.876;2023-02-12T11:10:29;7.10;90.70
14585;DHT22;7379;51.506;11.876;2023-02-12T11:12:58;7.10;90.70
14585;DHT22;7379;51.506;11.876;2023-02-12T11:15:26;7.10;90.80
14585;DHT22;7379;51.506;11.876;2023-02-12T11:17:57;7.10;90.80
14585;DHT22;7379;51.506;11.876;2023-02-12T11:20:26;7.20;91.00
14585;DHT22;7379;51.506;11.876;2023-02-12T11:22:56;7.20;91.10
14585;DHT22;7379;51.506;11.876;2023-02-12T11:25:24;7.20;91.00
14585;DHT22;7379;51.506;11.876;2023-02-12T11:28:02;7.20;90.80
14585;DHT22;7379;51.506;11.876;2023-02-12T11:30:30;7.20;90.50
14585;DHT22;7379;51.506;11.876;2023-02-12T11:33:16;7.20;90.60
14585;DHT22;7379;51.506;11.876;2023-02-12T11:35:54;7.20;90.80
14585;DHT22;7379;51.506;11.876;2023-02-12T11:38:28;7.20;90.90
14585;DHT22;7379;51.506;11.876;2023-02-12T11:41:01;7.20;90.90
14585;DHT22;7379;51.506;11.876;2023-02-12T11:43:31;7.20;90.70
14585;DHT22;7379;51.506;11.876;2023-02-12T11:46:02;7.20;90.50
14585;DHT22;7379;51.506;11.876;2023-02-12T11:48:32;7.20;90.30
14585;DHT22;7379;51.506;11.876;2023-02-12T11:51:04;7.20;89.90
14585;DHT22;7379;51.506;11.876;2023-02-12T11:53:37;7.20;89.40
14585;DHT22;7379;51.506;11.876;2023-02-12T11:56:07;7.30;90.20
14585;DHT22;7379;51.506;11.876;2023-02-12T11:58:37;7.30;90.60
14585;DHT22;7379;51.506;11.876;2023-02-12T12:01:11;7.30;90.80
14585;DHT22;7379;51.506;11.876;2023-02-12T12:03:46;7.30;90.90
14585;DHT22;7379;51.506;11.876;2023-02-12T12:06:22;7.40;91.00
14585;DHT22;7379;51.506;11.876;2023-02-12T12:08:54;7.40;91.00
14585;DHT22;7379;51.506;11.876;2023-02-12T12:11:25;7.40;90.90
14585;DHT22;7379;51.506;11.876;2023-02-12T12:14:02;7.40;90.80
14585;DHT22;7379;51.506;11.876;2023-02-12T12:16:34;7.50;90.70
14585;DHT22;7379;51.506;11.876;2023-02-12T12:19:23;7.50;90.70
14585;DHT22;7379;51.506;11.876;2023-02-12T12:22:22;7.50;90.50
14585;DHT22;7379;51.506;11.876;2023-02-12T12:24:55;7.50;90.50
14585;DHT22;7379;51.506;11.876;2023-02-12T12:27:29;7.60;90.40
14585;DHT22;7379;51.506;11.876;2023-02-12T12:30:20;7.60;90.30
14585;DHT22;7379;51.506;11.876;2023-02-12T12:32:50;7.60;90.30
14585;DHT22;7379;51.506;11.876;2023-02-12T12:35:23;7.60;90.00
14585;DHT22;7379;51.506;11.876;2023-02-12T12:37:58;7.70;90.30
14585;DHT22;7379;51.506;11.876;2023-02-12T12:40:41;7.70;90.10
14585;DHT22;7379;51.506;11.876;2023-02-12T12:43:12;7.70;90.00
14585;DHT22;7379;51.506;11.876;2023-02-12T12:46:09;7.70;89.70
14585;DHT22;7379;51.506;11.876;2023-02-12T12:48:49;7.70;89.60
14585;DHT22;7379;51.506;11.876;2023-02-12T12:51:35;7.70;89.40
14585;DHT22;7379;51.506;11.876;2023-02-12T12:54:14;7.70;89.40
14585;DHT22;7379;51.506;11.876;2023-02-12T12:56:56;7.70;89.30
14585;DHT22;7379;51.506;11.876;2023-02-12T12:59:46;7.70;88.90
14585;DHT22;7379;51.506;11.876;2023-02-12T13:05:35;7.70;88.30
14585;DHT22;7379;51.506;11.876;2023-02-12T13:08:14;7.70;88.30
14585;DHT22;7379;51.506;11.876;2023-02-12T13:10:48;7.70;88.30
14585;DHT22;7379;51.506;11.876;2023-02-12T13:13:24;7.80;88.90
14585;DHT22;7379;51.506;11.876;2023-02-12T13:15:58;7.80;88.90
14585;DHT22;7379;51.506;11.876;2023-02-12T13:18:39;7.80;88.70
14585;DHT22;7379;51.506;11.876;2023-02-12T13:21:15;7.80;88.70
14585;DHT22;7379;51.506;11.876;2023-02-12T13:23:50;7.80;88.60
14585;DHT22;7379;51.506;11.876;2023-02-12T13:26:24;7.80;88.80
14585;DHT22;7379;51.506;11.876;2023-02-12T13:29:00;7.80;88.70
14585;DHT22;7379;51.506;11.876;2023-02-12T13:31:29;7.80;88.60
14585;DHT22;7379;51.506;11.876;2023-02-12T13:34:00;7.80;88.80
14585;DHT22;7379;51.506;11.876;2023-02-12T13:36:27;7.80;88.40
14585;DHT22;7379;51.506;11.876;2023-02-12T13:38:57;7.80;88.40
14585;DHT22;7379;51.506;11.876;2023-02-12T13:41:27;7.80;88.80
14585;DHT22;7379;51.506;11.876;2023-02-12T13:44:02;7.80;88.80
14585;DHT22;7379;51.506;11.876;2023-02-12T13:46:43;7.80;88.40
14585;DHT22;7379;51.506;11.876;2023-02-12T13:49:23;7.80;87.80
14585;DHT22;7379;51.506;11.876;2023-02-12T13:51:55;7.80;88.00
14585;DHT22;7379;51.506;11.876;2023-02-12T13:54:39;7.80;87.30
14585;DHT22;7379;51.506;11.876;2023-02-12T13:57:10;7.80;87.30
14585;DHT22;7379;51.506;11.876;2023-02-12T13:59:40;7.80;87.80
14585;DHT22;7379;51.506;11.876;2023-02-12T14:05:29;7.90;88.50
14585;DHT22;7379;51.506;11.876;2023-02-12T14:07:59;7.90;88.30
14585;DHT22;7379;51.506;11.876;2023-02-12T14:10:31;7.90;88.10
14585;DHT22;7379;51.506;11.876;2023-02-12T14:13:10;7.90;88.10
14585;DHT22;7379;51.506;11.876;2023-02-12T14:15:40;7.90;88.10
14585;DHT22;7379;51.506;11.876;2023-02-12T14:18:30;7.90;88.00
14585;DHT22;7379;51.506;11.876;2023-02-12T14:27:21;7.90;88.10
14585;DHT22;7379;51.506;11.876;2023-02-12T14:30:18;7.90;87.80
14585;DHT22;7379;51.506;11.876;2023-02-12T14:33:23;7.90;87.60
14585;DHT22;7379;51.506;11.876;2023-02-12T14:36:34;7.90;87.60
14585;DHT22;7379;51.506;11.876;2023-02-12T14:39:25;7.90;87.20
14585;DHT22;7379;51.506;11.876;2023-02-12T14:41:53;7.90;87.30
14585;DHT22;7379;51.506;11.876;2023-02-12T14:44:45;7.90;87.50
14585;DHT22;7379;51.506;11.876;2023-02-12T14:50:00;7.90;87.10
14585;DHT22;7379;51.506;11.876;2023-02-12T14:52:31;7.90;87.30
14585;DHT22;7379;51.506;11.876;2023-02-12T14:55:00;8.00;87.80
14585;DHT22;7379;51.506;11.876;2023-02-12T14:57:29;8.00;87.90
14585;DHT22;7379;51.506;11.876;2023-02-12T15:00:00;8.00;87.40
14585;DHT22;7379;51.506;11.876;2023-02-12T15:02:31;8.00;87.10
14585;DHT22;7379;51.506;11.876;2023-02-12T15:05:03;8.00;87.20
14585;DHT22;7379;51.506;11.876;2023-02-12T15:07:34;8.00;87.10
14585;DHT22;7379;51.506;11.876;2023-02-12T15:10:07;8.00;86.90
14585;DHT22;7379;51.506;11.876;2023-02-12T15:12:39;8.00;87.30
14585;DHT22;7379;51.506;11.876;2023-02-12T15:15:17;8.00;87.40
14585;DHT22;7379;51.506;11.876;2023-02-12T15:17:59;8.00;87.40
14585;DHT22;7379;51.506;11.876;2023-02-12T15:20:33;8.00;87.40
14585;DHT22;7379;51.506;11.876;2023-02-12T15:23:01;8.00;87.20
14585;DHT22;7379;51.506;11.876;2023-02-12T15:25:31;8.00;87.50
14585;DHT22;7379;51.506;11.876;2023-02-12T15:28:00;8.00;87.20
14585;DHT22;7379;51.506;11.876;2023-02-12T15:30:32;8.00;87.00
14585;DHT22;7379;51.506;11.876;2023-02-12T15:33:01;8.00;86.90
14585;DHT22;7379;51.506;11.876;2023-02-12T15:35:31;8.00;86.90
14585;DHT22;7379;51.506;11.876;2023-02-12T15:37:59;8.00;86.90
14585;DHT22;7379;51.506;11.876;2023-02-12T15:40:28;8.00;87.00
14585;DHT22;7379;51.506;11.876;2023-02-12T15:42:56;8.00;87.00
14585;DHT22;7379;51.506;11.876;2023-02-12T15:45:25;8.00;87.00
14585;DHT22;7379;51.506;11.876;2023-02-12T15:48:06;7.90;86.90
14585;DHT22;7379;51.506;11.876;2023-02-12T15:50:45;8.00;87.10
14585;DHT22;7379;51.506;11.876;2023-02-12T15:53:13;8.00;87.30
14585;DHT22;7379;51.506;11.876;2023-02-12T15:55:43;8.00;87.20
14585;DHT22;7379;51.506;11.876;2023-02-12T15:58:21;8.00;87.20
14585;DHT22;7379;51.506;11.876;2023-02-12T16:00:49;8.00;87.50
14585;DHT22;7379;51.506;11.876;2023-02-12T16:03:20;8.00;87.80
14585;DHT22;7379;51.506;11.876;2023-02-12T16:05:48;8.00;87.60
14585;DHT22;7379;51.506;11.876;2023-02-12T16:08:17;8.00;87.50
14585;DHT22;7379;51.506;11.876;2023-02-12T16:10:47;8.00;87.20
14585;DHT22;7379;51.506;11.876;2023-02-12T16:13:15;8.00;87.00
14585;DHT22;7379;51.506;11.876;2023-02-12T16:15:43;8.00;87.50
14585;DHT22;7379;51.506;11.876;2023-02-12T16:18:23;8.00;86.70
14585;DHT22;7379;51.506;11.876;2023-02-12T16:21:02;8.00;86.70
14585;DHT22;7379;51.506;11.876;2023-02-12T16:23:30;7.90;86.70
14585;DHT22;7379;51.506;11.876;2023-02-12T16:25:57;7.90;86.70
14585;DHT22;7379;51.506;11.876;2023-02-12T16:28:26;7.90;86.50
14585;DHT22;7379;51.506;11.876;2023-02-12T16:31:06;7.90;86.30
14585;DHT22;7379;51.506;11.876;2023-02-12T16:33:41;7.90;86.40
14585;DHT22;7379;51.506;11.876;2023-02-12T16:36:13;7.90;86.40